Ormsby, MN (56162)

01:41 AM CST del 12 Febbraio 2016 (GMT -0600)
NuWay Coop - Ormsby | | Change Station
CLOSE
Current Station
Stazione meteo personale
Location: Ormsby, MN
Altitudine: 1187 ft
Stazioni meteo nelle vicinanze

Alt. 1187 ft 43.85 °N, 94.70 °W | Updated 13 minutes ago

Coperto
Coperto
15.4 °F
Sembra 4 °F
N
9.0
Vento Variabile Vento da Ovest
Gusts 10.0 mph

Oggi
Massima -- | Minima -- °F
--% Possibilità di precip.
Ieri
Massima -- | Minima -- °F
Precip. -- in
Pressione 30.22 in
Visibilità 10.0 miglia
Nuvole Coperto 3200 ft
Raffreddamento del vento 4 °F
Punto di rugiada 13 °F
Umidità 89%
Piovosità 0.00 in
Spessore del manto nevoso Non disponibile.
7:22 AM 5:44 PM
Luna crescente, 18% visible
METAR KJYG 120735Z AUTO 29010KT 10SM -SN OVC032 M08/M10 A3022 RMK AO2
Pressione 30.22 in
Visibilità 10.0 miglia
Nuvole Coperto 3200 ft
Raffreddamento del vento 4 °F
Punto di rugiada 13 °F
Umidità 89%
Piovosità 0.00 in
Spessore del manto nevoso Non disponibile.
7:22 AM 5:44 PM
Luna crescente, 18% visible
METAR KJYG 120735Z AUTO 29010KT 10SM -SN OVC032 M08/M10 A3022 RMK AO2

10-Day Weather Forecast

Almanac

Astronomia

Feb. 12, 2016 Alba Tramonto
Ora attuale
Crepuscolo civile
Crepuscolo nautico
Crepuscolo astronomico
Luna
Estensione della luce visibile
Lunghezza del giorno
Tomorrow will be .
, % of the Moon is Illuminated

Gli estremi di oggi

State Highs State Lows

Community

WunderPhotos

Upload Photos

1,892,278 foto caricate!

WunderBlog® & News

Nearby

Qualità dell'aria

  Qualità dell'aria Indice AQ Inquinante
Not available.

Profondità neve

Stazione Profondità Altitudine

Attività sismica

Città  Distanza Mag. Data & Ora
Minimo Magnitudo Mostrato è 2.5.

Temperature delle acque costiere

Località Temperatura

Stations

Stazioni meteo nelle vicinanze

Ubicazione della stazione Temp. Raffreddamento del vento Punto di rugiada Umidità Vento Precip. Alt. Aggiornato Tipo
                   

Watches & Warnings

There are currently no watches in effect.